Western King — CY7367 — position and weather

sailwx.info

Track history (hours):
 
Tides and Currents Weather Stations Pressure Air Temp Water Temp Dewpoint Dewpoint Depression Visibility Wind Speed Wind Dir Waves Ship Positions

Western King

Last reported at 2017-Aug-19 22:38 UTC. Time now 2017-Aug-24 02:49 UTC.
Position N 50°02' W 125°15'.

Length 23 m; draft 3.8 m.

Type: Fishing. MMSI: 316003779.

Date/timePositionNaut miles runAvg speedWind from/ knotsBaromVisibWave heightAir tempDewpointWater temp
2017-Aug-19 22:38N 50°02' W 125°15'0 0.0
2017-Aug-19 22:30N 50°02' W 125°15'0 0.0
2017-Aug-19 22:00N 50°02' W 125°15'0 0.0
2017-Aug-19 21:30N 50°02' W 125°15'0 0.0
2017-Aug-19 21:00N 50°02' W 125°15'0 0.0
2017-Aug-19 20:31N 50°02' W 125°15'510.1
2017-Aug-19 20:01N 50°07' W 125°18'611.3
2017-Aug-19 19:30N 50°12' W 125°22'5 9.7
2017-Aug-19 18:59N 50°17' W 125°24'16 7.1
2017-Aug-19 16:45N 50°22' W 125°48'0 0.0
2017-Aug-19 00:43N 50°22' W 125°48'0 0.6
2017-Aug-19 00:27N 50°22' W 125°48'10 0.5
2017-Aug-18 06:05N 50°21' W 125°32'1 7.7
2017-Aug-18 05:58N 50°21' W 125°31'4 8.2
2017-Aug-18 05:29N 50°19' W 125°25'5 9.5
2017-Aug-18 05:00N 50°15' W 125°23'5 9.9
2017-Aug-18 04:30N 50°10' W 125°21'5 9.0
2017-Aug-18 04:00N 50°06' W 125°18'5 9.0
2017-Aug-18 03:30N 50°02' W 125°15'0 0.1
2017-Aug-18 03:00N 50°02' W 125°15'0 0.0
2017-Aug-18 02:30N 50°02' W 125°15'0 0.2
2017-Aug-18 02:00N 50°02' W 125°15'0 0.2
2017-Aug-18 01:31N 50°02' W 125°15'0 0.0
2017-Aug-18 01:01N 50°02' W 125°15'0 0.0
2017-Aug-18 00:30N 50°02' W 125°15'0 0.0
2017-Aug-18 00:00N 50°02' W 125°15'0 0.0
2017-Aug-17 23:30N 50°02' W 125°15'0 0.0
2017-Aug-17 23:00N 50°02' W 125°15'0 0.0
2017-Aug-17 22:31N 50°02' W 125°15'0 0.0
2017-Aug-17 22:00N 50°02' W 125°15'0 0.0
2017-Aug-17 21:30N 50°02' W 125°15'0 0.0
2017-Aug-17 21:00N 50°02' W 125°15'0 0.0
2017-Aug-17 20:30N 50°02' W 125°15'0 0.0
2017-Aug-17 20:00N 50°02' W 125°15'0 0.0
2017-Aug-17 19:30N 50°02' W 125°15'0 0.0
2017-Aug-17 19:00N 50°02' W 125°15'0 0.2
2017-Aug-17 18:30N 50°02' W 125°15'0 0.0
2017-Aug-17 17:59N 50°02' W 125°15'0 0.0
2017-Aug-17 17:30N 50°02' W 125°15'0 0.0
2017-Aug-17 17:00N 50°02' W 125°15'0 0.0
2017-Aug-17 16:30N 50°02' W 125°15'0 0.2
2017-Aug-17 16:00N 50°02' W 125°15'0 0.0
2017-Aug-17 15:30N 50°02' W 125°15'0 0.0
2017-Aug-17 15:00N 50°02' W 125°15'0 0.0
2017-Aug-17 14:30N 50°02' W 125°15'0 0.0
2017-Aug-17 14:00N 50°02' W 125°15'0 0.0
2017-Aug-17 13:30N 50°02' W 125°15'0 0.0
2017-Aug-17 13:00N 50°02' W 125°15'0 0.0
2017-Aug-17 12:30N 50°02' W 125°15'0 0.0
2017-Aug-17 12:00N 50°02' W 125°15'0 0.0
2017-Aug-17 11:30N 50°02' W 125°15'0 0.0
2017-Aug-17 11:00N 50°02' W 125°15'0 0.0
2017-Aug-17 10:30N 50°02' W 125°15'0 0.0
2017-Aug-17 10:00N 50°02' W 125°15'0 0.0
2017-Aug-17 09:30N 50°02' W 125°15'0 0.0
2017-Aug-17 09:00N 50°02' W 125°15'0 0.0
2017-Aug-17 08:30N 50°02' W 125°15'0 0.0
2017-Aug-17 08:00N 50°02' W 125°15'0 0.0
2017-Aug-17 07:30N 50°02' W 125°15'0 0.0
2017-Aug-17 07:00N 50°02' W 125°15'0 0.0
2017-Aug-17 06:30N 50°02' W 125°15'0 0.0
2017-Aug-17 06:00N 50°02' W 125°15'0 0.0
2017-Aug-17 05:30N 50°02' W 125°15'0 0.0
2017-Aug-17 05:00N 50°02' W 125°15'0 0.0
2017-Aug-17 04:30N 50°02' W 125°15'0 0.0
2017-Aug-17 04:00N 50°02' W 125°15'0 0.0
2017-Aug-17 03:30N 50°02' W 125°15'0 0.0
2017-Aug-17 03:00N 50°02' W 125°15'0 0.0
2017-Aug-17 02:30N 50°02' W 125°15'0 0.0
2017-Aug-17 02:00N 50°02' W 125°15'0 0.0
2017-Aug-17 01:30N 50°02' W 125°15'0 0.0
2017-Aug-17 01:00N 50°02' W 125°15'0 0.0
2017-Aug-17 00:30N 50°02' W 125°15'0 0.0
2017-Aug-17 00:00N 50°02' W 125°15'0 0.0
2017-Aug-16 23:30N 50°02' W 125°15'0 0.0
2017-Aug-16 23:00N 50°02' W 125°15'0 0.0
2017-Aug-16 22:30N 50°02' W 125°15'0 0.0
2017-Aug-16 22:00N 50°02' W 125°15'0 0.0
2017-Aug-16 21:30N 50°02' W 125°15'0 0.0
2017-Aug-16 21:00N 50°02' W 125°15'0 0.0
2017-Aug-16 20:30N 50°02' W 125°15'0 0.0
2017-Aug-16 20:00N 50°02' W 125°15'0 0.0
2017-Aug-16 19:30N 50°02' W 125°15'0 0.0
2017-Aug-16 19:00N 50°02' W 125°15'0 0.0
2017-Aug-16 18:31N 50°02' W 125°15'0 0.0
2017-Aug-16 18:00N 50°02' W 125°15'0 0.0
2017-Aug-16 17:30N 50°02' W 125°15'0 0.0
2017-Aug-16 17:00N 50°02' W 125°15'0 0.0
2017-Aug-16 16:30N 50°02' W 125°15'0 0.0
2017-Aug-16 16:00N 50°02' W 125°15'0 0.0
2017-Aug-16 15:30N 50°02' W 125°15'0 0.0
2017-Aug-16 15:00N 50°02' W 125°15'0 0.0
2017-Aug-16 14:30N 50°02' W 125°15'0 0.0
2017-Aug-16 14:00N 50°02' W 125°15'0 0.0
2017-Aug-16 13:30N 50°02' W 125°15'0 0.0
2017-Aug-16 13:00N 50°02' W 125°15'0 0.0
2017-Aug-16 12:30N 50°02' W 125°15'0 0.0
2017-Aug-16 12:00N 50°02' W 125°15'0 0.0
2017-Aug-16 11:30N 50°02' W 125°15'0 0.0
2017-Aug-16 11:00N 50°02' W 125°15'0 0.0
2017-Aug-16 10:30N 50°02' W 125°15'0 0.0
2017-Aug-16 10:00N 50°02' W 125°15'0 0.0
2017-Aug-16 09:30N 50°02' W 125°15'0 0.0
2017-Aug-16 09:00N 50°02' W 125°15'0 0.0
2017-Aug-16 08:30N 50°02' W 125°15'0 0.0
2017-Aug-16 08:00N 50°02' W 125°15'0 0.0
2017-Aug-16 07:30N 50°02' W 125°15'0 0.0
2017-Aug-16 07:00N 50°02' W 125°15'0 0.0
2017-Aug-16 06:30N 50°02' W 125°15'0 0.0
2017-Aug-16 06:00N 50°02' W 125°15'0 0.0
2017-Aug-16 05:30N 50°02' W 125°15'0 0.0
2017-Aug-16 05:00N 50°02' W 125°15'0 0.0
2017-Aug-16 04:30N 50°02' W 125°15'0 0.0
2017-Aug-16 04:00N 50°02' W 125°15'0 0.0
2017-Aug-16 03:30N 50°02' W 125°15'0 0.0
2017-Aug-16 03:00N 50°02' W 125°15'0 0.0
2017-Aug-16 02:30N 50°02' W 125°15'0 0.0
2017-Aug-16 02:00N 50°02' W 125°15'0 0.0
2017-Aug-16 01:30N 50°02' W 125°15'0 0.0
2017-Aug-16 01:00N 50°02' W 125°15'0 0.0
2017-Aug-16 00:30N 50°02' W 125°15'0 0.0
2017-Aug-16 00:00N 50°02' W 125°15'0 0.0
2017-Aug-15 23:30N 50°02' W 125°15'0 0.0
2017-Aug-15 23:00N 50°02' W 125°15'0 0.0
2017-Aug-15 22:30N 50°02' W 125°15'0 0.0
2017-Aug-15 22:00N 50°02' W 125°15'0 0.0
2017-Aug-15 21:30N 50°02' W 125°15'0 0.0
2017-Aug-15 21:00N 50°02' W 125°15'0 0.0
2017-Aug-15 20:30N 50°02' W 125°15'0 0.0
2017-Aug-15 20:00N 50°02' W 125°15'0 0.0
2017-Aug-15 19:30N 50°02' W 125°15'0 0.0
2017-Aug-15 19:00N 50°02' W 125°15'0 0.0
2017-Aug-15 18:30N 50°02' W 125°15'0 0.0
2017-Aug-15 18:00N 50°02' W 125°15'0 0.0
2017-Aug-15 17:30N 50°02' W 125°15'0 0.0
2017-Aug-15 17:00N 50°02' W 125°15'0 0.0
2017-Aug-15 16:30N 50°02' W 125°15'0 0.0
2017-Aug-15 16:00N 50°02' W 125°15'0 0.0
2017-Aug-15 15:30N 50°02' W 125°15'0 0.0
2017-Aug-15 15:00N 50°02' W 125°15'0 0.0
2017-Aug-15 14:30N 50°02' W 125°15'0 0.0
2017-Aug-15 14:00N 50°02' W 125°15'0 0.0
2017-Aug-15 13:30N 50°02' W 125°15'0 0.0
2017-Aug-15 13:00N 50°02' W 125°15'0 0.0
2017-Aug-15 12:30N 50°02' W 125°15'0 0.0
2017-Aug-15 12:00N 50°02' W 125°15'0 0.0
2017-Aug-15 11:30N 50°02' W 125°15'0 0.0
2017-Aug-15 11:00N 50°02' W 125°15'0 0.0
2017-Aug-15 10:30N 50°02' W 125°15'0 0.0
2017-Aug-15 10:00N 50°02' W 125°15'0 0.0
2017-Aug-15 09:30N 50°02' W 125°15'0 0.0
2017-Aug-15 09:00N 50°02' W 125°15'0 0.0
2017-Aug-15 08:30N 50°02' W 125°15'0 0.0
2017-Aug-15 08:00N 50°02' W 125°15'0 0.0
2017-Aug-15 07:30N 50°02' W 125°15'0 0.0
2017-Aug-15 07:00N 50°02' W 125°15'0 0.0
2017-Aug-15 06:30N 50°02' W 125°15'0 0.0
2017-Aug-15 06:00N 50°02' W 125°15'0 0.0
2017-Aug-15 05:30N 50°02' W 125°15'0 0.0
2017-Aug-15 05:00N 50°02' W 125°15'0 0.0
2017-Aug-15 04:30N 50°02' W 125°15'0 0.0
2017-Aug-15 04:00N 50°02' W 125°15'0 0.0
2017-Aug-15 03:30N 50°02' W 125°15'0 0.0
2017-Aug-15 03:00N 50°02' W 125°15'0 0.0
2017-Aug-15 02:30N 50°02' W 125°15'0 0.0
2017-Aug-15 02:00N 50°02' W 125°15'0 0.0
2017-Aug-15 01:30N 50°02' W 125°15'0 0.0
2017-Aug-15 01:00N 50°02' W 125°15'0 0.0
2017-Aug-15 00:30N 50°02' W 125°15'0 0.0
2017-Aug-15 00:00N 50°02' W 125°15'0 0.0
2017-Aug-14 23:30N 50°02' W 125°15'0 0.0
2017-Aug-14 23:00N 50°02' W 125°15'0 0.0
2017-Aug-14 22:30N 50°02' W 125°15'0 0.0
2017-Aug-14 22:00N 50°02' W 125°15'0 0.0
2017-Aug-14 21:30N 50°02' W 125°15'0 0.0
2017-Aug-14 21:00N 50°02' W 125°15'0 0.0
2017-Aug-14 20:30N 50°02' W 125°15'0 0.0
2017-Aug-14 20:00N 50°02' W 125°15'0 0.0
2017-Aug-14 19:30N 50°02' W 125°15'0 0.0
2017-Aug-14 19:00N 50°02' W 125°15'0 0.2
2017-Aug-14 18:30N 50°02' W 125°15'0 0.0
2017-Aug-14 18:00N 50°02' W 125°15'0 0.0
2017-Aug-14 17:30N 50°02' W 125°15'0 0.1
2017-Aug-14 17:01N 50°02' W 125°15'0 0.0
2017-Aug-14 16:30N 50°02' W 125°15'0 0.0
2017-Aug-14 16:01N 50°02' W 125°15'0 0.0
2017-Aug-14 15:31N 50°02' W 125°15'0 0.0
2017-Aug-14 15:00N 50°02' W 125°15'0 0.0
2017-Aug-14 14:30N 50°02' W 125°15'0 0.0
2017-Aug-14 14:00N 50°02' W 125°15'0 0.0
2017-Aug-14 13:30N 50°02' W 125°15'0 0.0
2017-Aug-14 13:00N 50°02' W 125°15'0 0.0
2017-Aug-14 12:30N 50°02' W 125°15'0 0.0
2017-Aug-14 12:00N 50°02' W 125°15'0 0.0
2017-Aug-14 11:30N 50°02' W 125°15'0 0.0
2017-Aug-14 11:00N 50°02' W 125°15'0 0.0
2017-Aug-14 10:31N 50°02' W 125°15'0 0.0
2017-Aug-14 10:01N 50°02' W 125°15'0 0.0
2017-Aug-14 09:31N 50°02' W 125°15'0 0.0
2017-Aug-14 09:00N 50°02' W 125°15'0 0.0
2017-Aug-14 08:31N 50°02' W 125°15'0 0.0
2017-Aug-14 08:00N 50°02' W 125°15'0 0.0
2017-Aug-14 07:31N 50°02' W 125°15'0 0.0
2017-Aug-14 07:00N 50°02' W 125°15'0 0.0
2017-Aug-14 06:30N 50°02' W 125°15'0 0.0
2017-Aug-14 06:00N 50°02' W 125°15'0 0.0
2017-Aug-14 05:30N 50°02' W 125°15'0 0.0
2017-Aug-14 05:00N 50°02' W 125°15'0 0.0
2017-Aug-14 04:31N 50°02' W 125°15'0 0.0
2017-Aug-14 04:00N 50°02' W 125°15'0 0.0
2017-Aug-14 03:30N 50°02' W 125°15'0 0.0
2017-Aug-14 03:00N 50°02' W 125°15'0 0.0
2017-Aug-14 02:30N 50°02' W 125°15'0 0.0
2017-Aug-14 02:00N 50°02' W 125°15'0 0.0
2017-Aug-14 01:30N 50°02' W 125°15'0 0.0
2017-Aug-14 01:00N 50°02' W 125°15'0 0.0
2017-Aug-14 00:31N 50°02' W 125°15'0 0.0
2017-Aug-14 00:01N 50°02' W 125°15'0 0.0
2017-Aug-13 23:31N 50°02' W 125°15'0 0.0
2017-Aug-13 23:00N 50°02' W 125°15'0 0.0
2017-Aug-13 22:30N 50°02' W 125°15'0 0.0
2017-Aug-13 22:00N 50°02' W 125°15'0 0.0
2017-Aug-13 21:30N 50°02' W 125°15'0 0.0
2017-Aug-13 21:00N 50°02' W 125°15'0 0.0
2017-Aug-13 20:30N 50°02' W 125°15'0 0.0
2017-Aug-13 20:00N 50°02' W 125°15'0 0.0
2017-Aug-13 19:30N 50°02' W 125°15'0 0.0
2017-Aug-13 19:00N 50°02' W 125°15'0 0.0
2017-Aug-13 18:30N 50°02' W 125°15'0 0.0
2017-Aug-13 18:00N 50°02' W 125°15'0 0.0
2017-Aug-13 17:30N 50°02' W 125°15'0 0.0
2017-Aug-13 17:00N 50°02' W 125°15'0 0.0
2017-Aug-13 16:30N 50°02' W 125°15'0 0.0
2017-Aug-13 16:00N 50°02' W 125°15'0 0.0
2017-Aug-13 15:31N 50°02' W 125°15'0 0.0
2017-Aug-13 15:01N 50°02' W 125°15'0 0.0
2017-Aug-13 14:30N 50°02' W 125°15'0 0.0
2017-Aug-13 14:00N 50°02' W 125°15'0 0.0
2017-Aug-13 13:31N 50°02' W 125°15'0 0.0
2017-Aug-13 13:00N 50°02' W 125°15'0 0.0
2017-Aug-13 12:30N 50°02' W 125°15'0 0.0
2017-Aug-13 12:00N 50°02' W 125°15'0 0.0
2017-Aug-13 11:30N 50°02' W 125°15'0 0.0
2017-Aug-13 11:00N 50°02' W 125°15'0 0.0
2017-Aug-13 10:30N 50°02' W 125°15'0 0.0
2017-Aug-13 10:00N 50°02' W 125°15'0 0.0
2017-Aug-13 09:30N 50°02' W 125°15'0 0.0
2017-Aug-13 09:00N 50°02' W 125°15'0 0.0
2017-Aug-13 08:31N 50°02' W 125°15'0 0.0
2017-Aug-13 08:00N 50°02' W 125°15'0 0.0
2017-Aug-13 07:31N 50°02' W 125°15'0 0.0
2017-Aug-13 07:00N 50°02' W 125°15'0 0.0
2017-Aug-13 06:30N 50°02' W 125°15'0 0.0
2017-Aug-13 06:01N 50°02' W 125°15'0 0.0
2017-Aug-13 05:31N 50°02' W 125°15'0 0.0
2017-Aug-13 05:01N 50°02' W 125°15'0 0.0
2017-Aug-13 04:30N 50°02' W 125°15'0 0.0
2017-Aug-13 04:00N 50°02' W 125°15'0 0.0
2017-Aug-13 03:31N 50°02' W 125°15'0 0.0
2017-Aug-13 03:01N 50°02' W 125°15'0 0.0
2017-Aug-13 02:30N 50°02' W 125°15'0 0.0
2017-Aug-13 02:01N 50°02' W 125°15'0 0.0
2017-Aug-13 01:30N 50°02' W 125°15'0 0.0
2017-Aug-13 01:00N 50°02' W 125°15'0 0.0
2017-Aug-13 00:30N 50°02' W 125°15'0 0.0
2017-Aug-13 00:01N 50°02' W 125°15'0 0.0
2017-Aug-12 23:31N 50°02' W 125°15'0 0.0
2017-Aug-12 23:00N 50°02' W 125°15'0 0.0
2017-Aug-12 22:31N 50°02' W 125°15'0 0.0
2017-Aug-12 22:00N 50°02' W 125°15'0 0.0
2017-Aug-12 21:30N 50°02' W 125°15'0 0.2
2017-Aug-12 21:01N 50°02' W 125°15'0 0.0
2017-Aug-12 20:30N 50°02' W 125°15'0 0.0
2017-Aug-12 20:00N 50°02' W 125°15'0 0.0
2017-Aug-12 19:29N 50°02' W 125°15'0 0.0
2017-Aug-12 19:00N 50°02' W 125°15'0 0.0
2017-Aug-12 18:30N 50°02' W 125°15'0 0.0
2017-Aug-12 18:01N 50°02' W 125°15'0 0.0
2017-Aug-12 17:30N 50°02' W 125°15'3 5.8
2017-Aug-12 17:00N 50°05' W 125°17'3 6.5
2017-Aug-12 16:31N 50°08' W 125°19'1 1.4
2017-Aug-12 16:01N 50°08' W 125°20'4 8.8
2017-Aug-12 15:31N 50°12' W 125°22'4 9.0
2017-Aug-12 15:00N 50°16' W 125°24'7 8.5
2017-Aug-12 14:13N 50°21' W 125°31'5 9.4
2017-Aug-12 13:43N 50°22' W 125°38'38 9.5
2017-Aug-12 09:41N 50°31' W 126°37'2 8.3
2017-Aug-12 09:29N 50°31' W 126°40'5 8.0
2017-Aug-12 08:52N 50°33' W 126°47'3 7.7
2017-Aug-12 08:30N 50°34' W 126°51'4 7.8
2017-Aug-12 08:00N 50°35' W 126°57'4 7.6
2017-Aug-12 07:27N 50°37' W 127°03'4 8.2
2017-Aug-12 06:57N 50°37' W 127°09'3 7.5
2017-Aug-12 06:30N 50°39' W 127°14'4 8.6
2017-Aug-12 05:59N 50°42' W 127°19'4 8.2
2017-Aug-12 05:29N 50°45' W 127°24'3 7.1
2017-Aug-12 05:01N 50°43' W 127°29'1 1.4
2017-Aug-12 04:30N 50°43' W 127°29'0 0.0
2017-Aug-12 03:55N 50°43' W 127°29'0 0.0
2017-Aug-12 03:29N 50°43' W 127°29'0 0.0
2017-Aug-12 02:53N 50°43' W 127°29'0 0.0
2017-Aug-12 02:27N 50°43' W 127°29'0 0.0
2017-Aug-12 01:16N 50°43' W 127°29'0 0.0
2017-Aug-12 00:55N 50°43' W 127°29'0 0.0
2017-Aug-12 00:29N 50°43' W 127°29'0 0.0
2017-Aug-12 00:00N 50°43' W 127°29'0 0.0
2017-Aug-11 23:27N 50°43' W 127°29'0 0.0
2017-Aug-11 23:00N 50°43' W 127°29'0 0.6
2017-Aug-11 22:30N 50°43' W 127°29'0 0.0
2017-Aug-11 22:00N 50°43' W 127°29'0 0.1
2017-Aug-11 21:30N 50°43' W 127°29'0 0.0
2017-Aug-11 21:00N 50°43' W 127°29'0 0.0
2017-Aug-11 20:30N 50°43' W 127°29'0 0.0
2017-Aug-11 20:01N 50°43' W 127°29'0 0.0
2017-Aug-11 19:30N 50°43' W 127°29'0 0.0
2017-Aug-11 19:00N 50°43' W 127°29'0 0.0
2017-Aug-11 18:30N 50°43' W 127°29'0 0.0
2017-Aug-11 18:00N 50°43' W 127°29'0 0.0
2017-Aug-11 17:21N 50°43' W 127°29'0 0.0
2017-Aug-11 17:00N 50°43' W 127°29'0 0.0
2017-Aug-11 16:30N 50°43' W 127°29'0 0.0
2017-Aug-11 16:00N 50°43' W 127°29'0 0.0
2017-Aug-11 15:30N 50°43' W 127°29'0 0.0
2017-Aug-11 15:00N 50°43' W 127°29'0 0.0
2017-Aug-11 14:30N 50°43' W 127°29'0 0.0
2017-Aug-11 13:30N 50°43' W 127°29'0 0.0
2017-Aug-11 13:00N 50°43' W 127°29'0 0.0
2017-Aug-11 12:30N 50°43' W 127°29'0 0.0
2017-Aug-11 12:00N 50°43' W 127°29'0 0.0
2017-Aug-11 11:30N 50°43' W 127°29'0 0.0
2017-Aug-11 11:00N 50°43' W 127°29'0 0.0
2017-Aug-11 10:30N 50°43' W 127°29'0 0.0
2017-Aug-11 10:00N 50°43' W 127°29'0 0.0
2017-Aug-11 09:30N 50°43' W 127°29'0 0.0
2017-Aug-11 09:00N 50°43' W 127°29'0 0.5
2017-Aug-11 08:30N 50°43' W 127°29'4 7.5
2017-Aug-11 08:00N 50°47' W 127°29'4 8.4
2017-Aug-11 07:30N 50°49' W 127°35'4 8.0
2017-Aug-11 07:00N 50°53' W 127°37'3 6.9
2017-Aug-11 06:30N 50°55' W 127°41'4 7.2
2017-Aug-11 06:00N 50°57' W 127°46'3 6.9
2017-Aug-11 05:30N 50°59' W 127°50'4 7.5
2017-Aug-11 05:00N 51°00' W 127°56'4 7.5
2017-Aug-11 04:30N 51°02' W 128°02'4 7.7
2017-Aug-11 04:00N 51°03' W 128°07'4 7.5
2017-Aug-11 03:30N 51°05' W 128°13'4 7.3
2017-Aug-11 03:00N 51°07' W 128°18'4 7.6
2017-Aug-11 02:30N 51°09' W 128°23'4 8.3
2017-Aug-11 02:00N 51°11' W 128°28'4 8.5
2017-Aug-11 01:30N 51°13' W 128°34'4 8.6
2017-Aug-11 01:00N 51°16' W 128°40'4 8.5
2017-Aug-11 00:30N 51°18' W 128°46'4 8.2
2017-Aug-11 00:00N 51°20' W 128°51'4 8.5
2017-Aug-10 23:30N 51°22' W 128°57'4 8.8
2017-Aug-10 23:00N 51°24' W 129°03'6 8.8
2017-Aug-10 22:22N 51°27' W 129°11'72 4.2
2017-Aug-10 05:03N 52°12' W 130°42'  
Track history (hours):
 
Tides and Currents Weather Stations Pressure Air Temp Water Temp Dewpoint Dewpoint Depression Visibility Wind Speed Wind Dir Waves Ship Positions

Western King

Last reported at 2017-Aug-19 22:38 UTC. Time now 2017-Aug-24 02:49 UTC.
Position N 50°02' W 125°15'.

Length 23 m; draft 3.8 m.

Type: Fishing. MMSI: 316003779.

Date/timePositionNaut miles runAvg speedWind from/ knotsBaromVisibWave heightAir tempDewpointWater temp
2017-Aug-19 22:38N 50°02' W 125°15'0 0.0
2017-Aug-19 22:30N 50°02' W 125°15'0 0.0
2017-Aug-19 22:00N 50°02' W 125°15'0 0.0
2017-Aug-19 21:30N 50°02' W 125°15'0 0.0
2017-Aug-19 21:00N 50°02' W 125°15'0 0.0
2017-Aug-19 20:31N 50°02' W 125°15'510.1
2017-Aug-19 20:01N 50°07' W 125°18'611.3
2017-Aug-19 19:30N 50°12' W 125°22'5 9.7
2017-Aug-19 18:59N 50°17' W 125°24'16 7.1
2017-Aug-19 16:45N 50°22' W 125°48'0 0.0
2017-Aug-19 00:43N 50°22' W 125°48'0 0.6
2017-Aug-19 00:27N 50°22' W 125°48'10 0.5
2017-Aug-18 06:05N 50°21' W 125°32'1 7.7
2017-Aug-18 05:58N 50°21' W 125°31'4 8.2
2017-Aug-18 05:29N 50°19' W 125°25'5 9.5
2017-Aug-18 05:00N 50°15' W 125°23'5 9.9
2017-Aug-18 04:30N 50°10' W 125°21'5 9.0
2017-Aug-18 04:00N 50°06' W 125°18'5 9.0
2017-Aug-18 03:30N 50°02' W 125°15'0 0.1
2017-Aug-18 03:00N 50°02' W 125°15'0 0.0
2017-Aug-18 02:30N 50°02' W 125°15'0 0.2
2017-Aug-18 02:00N 50°02' W 125°15'0 0.2
2017-Aug-18 01:31N 50°02' W 125°15'0 0.0
2017-Aug-18 01:01N 50°02' W 125°15'0 0.0
2017-Aug-18 00:30N 50°02' W 125°15'0 0.0
2017-Aug-18 00:00N 50°02' W 125°15'0 0.0
2017-Aug-17 23:30N 50°02' W 125°15'0 0.0
2017-Aug-17 23:00N 50°02' W 125°15'0 0.0
2017-Aug-17 22:31N 50°02' W 125°15'0 0.0
2017-Aug-17 22:00N 50°02' W 125°15'0 0.0
2017-Aug-17 21:30N 50°02' W 125°15'0 0.0
2017-Aug-17 21:00N 50°02' W 125°15'0 0.0
2017-Aug-17 20:30N 50°02' W 125°15'0 0.0
2017-Aug-17 20:00N 50°02' W 125°15'0 0.0
2017-Aug-17 19:30N 50°02' W 125°15'0 0.0
2017-Aug-17 19:00N 50°02' W 125°15'0 0.2
2017-Aug-17 18:30N 50°02' W 125°15'0 0.0
2017-Aug-17 17:59N 50°02' W 125°15'0 0.0
2017-Aug-17 17:30N 50°02' W 125°15'0 0.0
2017-Aug-17 17:00N 50°02' W 125°15'0 0.0
2017-Aug-17 16:30N 50°02' W 125°15'0 0.2
2017-Aug-17 16:00N 50°02' W 125°15'0 0.0
2017-Aug-17 15:30N 50°02' W 125°15'0 0.0
2017-Aug-17 15:00N 50°02' W 125°15'0 0.0
2017-Aug-17 14:30N 50°02' W 125°15'0 0.0
2017-Aug-17 14:00N 50°02' W 125°15'0 0.0
2017-Aug-17 13:30N 50°02' W 125°15'0 0.0
2017-Aug-17 13:00N 50°02' W 125°15'0 0.0
2017-Aug-17 12:30N 50°02' W 125°15'0 0.0
2017-Aug-17 12:00N 50°02' W 125°15'0 0.0
2017-Aug-17 11:30N 50°02' W 125°15'0 0.0
2017-Aug-17 11:00N 50°02' W 125°15'0 0.0
2017-Aug-17 10:30N 50°02' W 125°15'0 0.0
2017-Aug-17 10:00N 50°02' W 125°15'0 0.0
2017-Aug-17 09:30N 50°02' W 125°15'0 0.0
2017-Aug-17 09:00N 50°02' W 125°15'0 0.0
2017-Aug-17 08:30N 50°02' W 125°15'0 0.0
2017-Aug-17 08:00N 50°02' W 125°15'0 0.0
2017-Aug-17 07:30N 50°02' W 125°15'0 0.0
2017-Aug-17 07:00N 50°02' W 125°15'0 0.0
2017-Aug-17 06:30N 50°02' W 125°15'0 0.0
2017-Aug-17 06:00N 50°02' W 125°15'0 0.0
2017-Aug-17 05:30N 50°02' W 125°15'0 0.0
2017-Aug-17 05:00N 50°02' W 125°15'0 0.0
2017-Aug-17 04:30N 50°02' W 125°15'0 0.0
2017-Aug-17 04:00N 50°02' W 125°15'0 0.0
2017-Aug-17 03:30N 50°02' W 125°15'0 0.0
2017-Aug-17 03:00N 50°02' W 125°15'0 0.0
2017-Aug-17 02:30N 50°02' W 125°15'0 0.0
2017-Aug-17 02:00N 50°02' W 125°15'0 0.0
2017-Aug-17 01:30N 50°02' W 125°15'0 0.0
2017-Aug-17 01:00N 50°02' W 125°15'0 0.0
2017-Aug-17 00:30N 50°02' W 125°15'0 0.0
2017-Aug-17 00:00N 50°02' W 125°15'0 0.0
2017-Aug-16 23:30N 50°02' W 125°15'0 0.0
2017-Aug-16 23:00N 50°02' W 125°15'0 0.0
2017-Aug-16 22:30N 50°02' W 125°15'0 0.0
2017-Aug-16 22:00N 50°02' W 125°15'0 0.0
2017-Aug-16 21:30N 50°02' W 125°15'0 0.0
2017-Aug-16 21:00N 50°02' W 125°15'0 0.0
2017-Aug-16 20:30N 50°02' W 125°15'0 0.0
2017-Aug-16 20:00N 50°02' W 125°15'0 0.0
2017-Aug-16 19:30N 50°02' W 125°15'0 0.0
2017-Aug-16 19:00N 50°02' W 125°15'0 0.0
2017-Aug-16 18:31N 50°02' W 125°15'0 0.0
2017-Aug-16 18:00N 50°02' W 125°15'0 0.0
2017-Aug-16 17:30N 50°02' W 125°15'0 0.0
2017-Aug-16 17:00N 50°02' W 125°15'0 0.0
2017-Aug-16 16:30N 50°02' W 125°15'0 0.0
2017-Aug-16 16:00N 50°02' W 125°15'0 0.0
2017-Aug-16 15:30N 50°02' W 125°15'0 0.0
2017-Aug-16 15:00N 50°02' W 125°15'0 0.0
2017-Aug-16 14:30N 50°02' W 125°15'0 0.0
2017-Aug-16 14:00N 50°02' W 125°15'0 0.0
2017-Aug-16 13:30N 50°02' W 125°15'0 0.0
2017-Aug-16 13:00N 50°02' W 125°15'0 0.0
2017-Aug-16 12:30N 50°02' W 125°15'0 0.0
2017-Aug-16 12:00N 50°02' W 125°15'0 0.0
2017-Aug-16 11:30N 50°02' W 125°15'0 0.0
2017-Aug-16 11:00N 50°02' W 125°15'0 0.0
2017-Aug-16 10:30N 50°02' W 125°15'0 0.0
2017-Aug-16 10:00N 50°02' W 125°15'0 0.0
2017-Aug-16 09:30N 50°02' W 125°15'0 0.0
2017-Aug-16 09:00N 50°02' W 125°15'0 0.0
2017-Aug-16 08:30N 50°02' W 125°15'0 0.0
2017-Aug-16 08:00N 50°02' W 125°15'0 0.0
2017-Aug-16 07:30N 50°02' W 125°15'0 0.0
2017-Aug-16 07:00N 50°02' W 125°15'0 0.0
2017-Aug-16 06:30N 50°02' W 125°15'0 0.0
2017-Aug-16 06:00N 50°02' W 125°15'0 0.0
2017-Aug-16 05:30N 50°02' W 125°15'0 0.0
2017-Aug-16 05:00N 50°02' W 125°15'0 0.0
2017-Aug-16 04:30N 50°02' W 125°15'0 0.0
2017-Aug-16 04:00N 50°02' W 125°15'0 0.0
2017-Aug-16 03:30N 50°02' W 125°15'0 0.0
2017-Aug-16 03:00N 50°02' W 125°15'0 0.0
2017-Aug-16 02:30N 50°02' W 125°15'0 0.0
2017-Aug-16 02:00N 50°02' W 125°15'0 0.0
2017-Aug-16 01:30N 50°02' W 125°15'0 0.0
2017-Aug-16 01:00N 50°02' W 125°15'0 0.0
2017-Aug-16 00:30N 50°02' W 125°15'0 0.0
2017-Aug-16 00:00N 50°02' W 125°15'0 0.0
2017-Aug-15 23:30N 50°02' W 125°15'0 0.0
2017-Aug-15 23:00N 50°02' W 125°15'0 0.0
2017-Aug-15 22:30N 50°02' W 125°15'0 0.0
2017-Aug-15 22:00N 50°02' W 125°15'0 0.0
2017-Aug-15 21:30N 50°02' W 125°15'0 0.0
2017-Aug-15 21:00N 50°02' W 125°15'0 0.0
2017-Aug-15 20:30N 50°02' W 125°15'0 0.0
2017-Aug-15 20:00N 50°02' W 125°15'0 0.0
2017-Aug-15 19:30N 50°02' W 125°15'0 0.0
2017-Aug-15 19:00N 50°02' W 125°15'0 0.0
2017-Aug-15 18:30N 50°02' W 125°15'0 0.0
2017-Aug-15 18:00N 50°02' W 125°15'0 0.0
2017-Aug-15 17:30N 50°02' W 125°15'0 0.0
2017-Aug-15 17:00N 50°02' W 125°15'0 0.0
2017-Aug-15 16:30N 50°02' W 125°15'0 0.0
2017-Aug-15 16:00N 50°02' W 125°15'0 0.0
2017-Aug-15 15:30N 50°02' W 125°15'0 0.0
2017-Aug-15 15:00N 50°02' W 125°15'0 0.0
2017-Aug-15 14:30N 50°02' W 125°15'0 0.0
2017-Aug-15 14:00N 50°02' W 125°15'0 0.0
2017-Aug-15 13:30N 50°02' W 125°15'0 0.0
2017-Aug-15 13:00N 50°02' W 125°15'0 0.0
2017-Aug-15 12:30N 50°02' W 125°15'0 0.0
2017-Aug-15 12:00N 50°02' W 125°15'0 0.0
2017-Aug-15 11:30N 50°02' W 125°15'0 0.0
2017-Aug-15 11:00N 50°02' W 125°15'0 0.0
2017-Aug-15 10:30N 50°02' W 125°15'0 0.0
2017-Aug-15 10:00N 50°02' W 125°15'0 0.0
2017-Aug-15 09:30N 50°02' W 125°15'0 0.0
2017-Aug-15 09:00N 50°02' W 125°15'0 0.0
2017-Aug-15 08:30N 50°02' W 125°15'0 0.0
2017-Aug-15 08:00N 50°02' W 125°15'0 0.0
2017-Aug-15 07:30N 50°02' W 125°15'0 0.0
2017-Aug-15 07:00N 50°02' W 125°15'0 0.0
2017-Aug-15 06:30N 50°02' W 125°15'0 0.0
2017-Aug-15 06:00N 50°02' W 125°15'0 0.0
2017-Aug-15 05:30N 50°02' W 125°15'0 0.0
2017-Aug-15 05:00N 50°02' W 125°15'0 0.0
2017-Aug-15 04:30N 50°02' W 125°15'0 0.0
2017-Aug-15 04:00N 50°02' W 125°15'0 0.0
2017-Aug-15 03:30N 50°02' W 125°15'0 0.0
2017-Aug-15 03:00N 50°02' W 125°15'0 0.0
2017-Aug-15 02:30N 50°02' W 125°15'0 0.0
2017-Aug-15 02:00N 50°02' W 125°15'0 0.0
2017-Aug-15 01:30N 50°02' W 125°15'0 0.0
2017-Aug-15 01:00N 50°02' W 125°15'0 0.0
2017-Aug-15 00:30N 50°02' W 125°15'0 0.0
2017-Aug-15 00:00N 50°02' W 125°15'0 0.0
2017-Aug-14 23:30N 50°02' W 125°15'0 0.0
2017-Aug-14 23:00N 50°02' W 125°15'0 0.0
2017-Aug-14 22:30N 50°02' W 125°15'0 0.0
2017-Aug-14 22:00N 50°02' W 125°15'0 0.0
2017-Aug-14 21:30N 50°02' W 125°15'0 0.0
2017-Aug-14 21:00N 50°02' W 125°15'0 0.0
2017-Aug-14 20:30N 50°02' W 125°15'0 0.0
2017-Aug-14 20:00N 50°02' W 125°15'0 0.0
2017-Aug-14 19:30N 50°02' W 125°15'0 0.0
2017-Aug-14 19:00N 50°02' W 125°15'0 0.2
2017-Aug-14 18:30N 50°02' W 125°15'0 0.0
2017-Aug-14 18:00N 50°02' W 125°15'0 0.0
2017-Aug-14 17:30N 50°02' W 125°15'0 0.1
2017-Aug-14 17:01N 50°02' W 125°15'0 0.0
2017-Aug-14 16:30N 50°02' W 125°15'0 0.0
2017-Aug-14 16:01N 50°02' W 125°15'0 0.0
2017-Aug-14 15:31N 50°02' W 125°15'0 0.0
2017-Aug-14 15:00N 50°02' W 125°15'0 0.0
2017-Aug-14 14:30N 50°02' W 125°15'0 0.0
2017-Aug-14 14:00N 50°02' W 125°15'0 0.0
2017-Aug-14 13:30N 50°02' W 125°15'0 0.0
2017-Aug-14 13:00N 50°02' W 125°15'0 0.0
2017-Aug-14 12:30N 50°02' W 125°15'0 0.0
2017-Aug-14 12:00N 50°02' W 125°15'0 0.0
2017-Aug-14 11:30N 50°02' W 125°15'0 0.0
2017-Aug-14 11:00N 50°02' W 125°15'0 0.0
2017-Aug-14 10:31N 50°02' W 125°15'0 0.0
2017-Aug-14 10:01N 50°02' W 125°15'0 0.0
2017-Aug-14 09:31N 50°02' W 125°15'0 0.0
2017-Aug-14 09:00N 50°02' W 125°15'0 0.0
2017-Aug-14 08:31N 50°02' W 125°15'0 0.0
2017-Aug-14 08:00N 50°02' W 125°15'0 0.0
2017-Aug-14 07:31N 50°02' W 125°15'0 0.0
2017-Aug-14 07:00N 50°02' W 125°15'0 0.0
2017-Aug-14 06:30N 50°02' W 125°15'0 0.0
2017-Aug-14 06:00N 50°02' W 125°15'0 0.0
2017-Aug-14 05:30N 50°02' W 125°15'0 0.0
2017-Aug-14 05:00N 50°02' W 125°15'0 0.0
2017-Aug-14 04:31N 50°02' W 125°15'0 0.0
2017-Aug-14 04:00N 50°02' W 125°15'0 0.0
2017-Aug-14 03:30N 50°02' W 125°15'0 0.0
2017-Aug-14 03:00N 50°02' W 125°15'0 0.0
2017-Aug-14 02:30N 50°02' W 125°15'0 0.0
2017-Aug-14 02:00N 50°02' W 125°15'0 0.0
2017-Aug-14 01:30N 50°02' W 125°15'0 0.0
2017-Aug-14 01:00N 50°02' W 125°15'0 0.0
2017-Aug-14 00:31N 50°02' W 125°15'0 0.0
2017-Aug-14 00:01N 50°02' W 125°15'0 0.0
2017-Aug-13 23:31N 50°02' W 125°15'0 0.0
2017-Aug-13 23:00N 50°02' W 125°15'0 0.0
2017-Aug-13 22:30N 50°02' W 125°15'0 0.0
2017-Aug-13 22:00N 50°02' W 125°15'0 0.0
2017-Aug-13 21:30N 50°02' W 125°15'0 0.0
2017-Aug-13 21:00N 50°02' W 125°15'0 0.0
2017-Aug-13 20:30N 50°02' W 125°15'0 0.0
2017-Aug-13 20:00N 50°02' W 125°15'0 0.0
2017-Aug-13 19:30N 50°02' W 125°15'0 0.0
2017-Aug-13 19:00N 50°02' W 125°15'0 0.0
2017-Aug-13 18:30N 50°02' W 125°15'0 0.0
2017-Aug-13 18:00N 50°02' W 125°15'0 0.0
2017-Aug-13 17:30N 50°02' W 125°15'0 0.0
2017-Aug-13 17:00N 50°02' W 125°15'0 0.0
2017-Aug-13 16:30N 50°02' W 125°15'0 0.0
2017-Aug-13 16:00N 50°02' W 125°15'0 0.0
2017-Aug-13 15:31N 50°02' W 125°15'0 0.0
2017-Aug-13 15:01N 50°02' W 125°15'0 0.0
2017-Aug-13 14:30N 50°02' W 125°15'0 0.0
2017-Aug-13 14:00N 50°02' W 125°15'0 0.0
2017-Aug-13 13:31N 50°02' W 125°15'0 0.0
2017-Aug-13 13:00N 50°02' W 125°15'0 0.0
2017-Aug-13 12:30N 50°02' W 125°15'0 0.0
2017-Aug-13 12:00N 50°02' W 125°15'0 0.0
2017-Aug-13 11:30N 50°02' W 125°15'0 0.0
2017-Aug-13 11:00N 50°02' W 125°15'0 0.0
2017-Aug-13 10:30N 50°02' W 125°15'0 0.0
2017-Aug-13 10:00N 50°02' W 125°15'0 0.0
2017-Aug-13 09:30N 50°02' W 125°15'0 0.0
2017-Aug-13 09:00N 50°02' W 125°15'0 0.0
2017-Aug-13 08:31N 50°02' W 125°15'0 0.0
2017-Aug-13 08:00N 50°02' W 125°15'0 0.0
2017-Aug-13 07:31N 50°02' W 125°15'0 0.0
2017-Aug-13 07:00N 50°02' W 125°15'0 0.0
2017-Aug-13 06:30N 50°02' W 125°15'0 0.0
2017-Aug-13 06:01N 50°02' W 125°15'0 0.0
2017-Aug-13 05:31N 50°02' W 125°15'0 0.0
2017-Aug-13 05:01N 50°02' W 125°15'0 0.0
2017-Aug-13 04:30N 50°02' W 125°15'0 0.0
2017-Aug-13 04:00N 50°02' W 125°15'0 0.0
2017-Aug-13 03:31N 50°02' W 125°15'0 0.0
2017-Aug-13 03:01N 50°02' W 125°15'0 0.0
2017-Aug-13 02:30N 50°02' W 125°15'0 0.0
2017-Aug-13 02:01N 50°02' W 125°15'0 0.0
2017-Aug-13 01:30N 50°02' W 125°15'0 0.0
2017-Aug-13 01:00N 50°02' W 125°15'0 0.0
2017-Aug-13 00:30N 50°02' W 125°15'0 0.0
2017-Aug-13 00:01N 50°02' W 125°15'0 0.0
2017-Aug-12 23:31N 50°02' W 125°15'0 0.0
2017-Aug-12 23:00N 50°02' W 125°15'0 0.0
2017-Aug-12 22:31N 50°02' W 125°15'0 0.0
2017-Aug-12 22:00N 50°02' W 125°15'0 0.0
2017-Aug-12 21:30N 50°02' W 125°15'0 0.2
2017-Aug-12 21:01N 50°02' W 125°15'0 0.0
2017-Aug-12 20:30N 50°02' W 125°15'0 0.0
2017-Aug-12 20:00N 50°02' W 125°15'0 0.0
2017-Aug-12 19:29N 50°02' W 125°15'0 0.0
2017-Aug-12 19:00N 50°02' W 125°15'0 0.0
2017-Aug-12 18:30N 50°02' W 125°15'0 0.0
2017-Aug-12 18:01N 50°02' W 125°15'0 0.0
2017-Aug-12 17:30N 50°02' W 125°15'3 5.8
2017-Aug-12 17:00N 50°05' W 125°17'3 6.5
2017-Aug-12 16:31N 50°08' W 125°19'1 1.4
2017-Aug-12 16:01N 50°08' W 125°20'4 8.8
2017-Aug-12 15:31N 50°12' W 125°22'4 9.0
2017-Aug-12 15:00N 50°16' W 125°24'7 8.5
2017-Aug-12 14:13N 50°21' W 125°31'5 9.4
2017-Aug-12 13:43N 50°22' W 125°38'38 9.5
2017-Aug-12 09:41N 50°31' W 126°37'2 8.3
2017-Aug-12 09:29N 50°31' W 126°40'5 8.0
2017-Aug-12 08:52N 50°33' W 126°47'3 7.7
2017-Aug-12 08:30N 50°34' W 126°51'4 7.8
2017-Aug-12 08:00N 50°35' W 126°57'4 7.6
2017-Aug-12 07:27N 50°37' W 127°03'4 8.2
2017-Aug-12 06:57N 50°37' W 127°09'3 7.5
2017-Aug-12 06:30N 50°39' W 127°14'4 8.6
2017-Aug-12 05:59N 50°42' W 127°19'4 8.2
2017-Aug-12 05:29N 50°45' W 127°24'3 7.1
2017-Aug-12 05:01N 50°43' W 127°29'1 1.4
2017-Aug-12 04:30N 50°43' W 127°29'0 0.0
2017-Aug-12 03:55N 50°43' W 127°29'0 0.0
2017-Aug-12 03:29N 50°43' W 127°29'0 0.0
2017-Aug-12 02:53N 50°43' W 127°29'0 0.0
2017-Aug-12 02:27N 50°43' W 127°29'0 0.0
2017-Aug-12 01:16N 50°43' W 127°29'0 0.0
2017-Aug-12 00:55N 50°43' W 127°29'0 0.0
2017-Aug-12 00:29N 50°43' W 127°29'0 0.0
2017-Aug-12 00:00N 50°43' W 127°29'0 0.0
2017-Aug-11 23:27N 50°43' W 127°29'0 0.0
2017-Aug-11 23:00N 50°43' W 127°29'0 0.6
2017-Aug-11 22:30N 50°43' W 127°29'0 0.0
2017-Aug-11 22:00N 50°43' W 127°29'0 0.1
2017-Aug-11 21:30N 50°43' W 127°29'0 0.0
2017-Aug-11 21:00N 50°43' W 127°29'0 0.0
2017-Aug-11 20:30N 50°43' W 127°29'0 0.0
2017-Aug-11 20:01N 50°43' W 127°29'0 0.0
2017-Aug-11 19:30N 50°43' W 127°29'0 0.0
2017-Aug-11 19:00N 50°43' W 127°29'0 0.0
2017-Aug-11 18:30N 50°43' W 127°29'0 0.0
2017-Aug-11 18:00N 50°43' W 127°29'0 0.0
2017-Aug-11 17:21N 50°43' W 127°29'0 0.0
2017-Aug-11 17:00N 50°43' W 127°29'0 0.0
2017-Aug-11 16:30N 50°43' W 127°29'0 0.0
2017-Aug-11 16:00N 50°43' W 127°29'0 0.0
2017-Aug-11 15:30N 50°43' W 127°29'0 0.0
2017-Aug-11 15:00N 50°43' W 127°29'0 0.0
2017-Aug-11 14:30N 50°43' W 127°29'0 0.0
2017-Aug-11 13:30N 50°43' W 127°29'0 0.0
2017-Aug-11 13:00N 50°43' W 127°29'0 0.0
2017-Aug-11 12:30N 50°43' W 127°29'0 0.0
2017-Aug-11 12:00N 50°43' W 127°29'0 0.0
2017-Aug-11 11:30N 50°43' W 127°29'0 0.0
2017-Aug-11 11:00N 50°43' W 127°29'0 0.0
2017-Aug-11 10:30N 50°43' W 127°29'0 0.0
2017-Aug-11 10:00N 50°43' W 127°29'0 0.0
2017-Aug-11 09:30N 50°43' W 127°29'0 0.0
2017-Aug-11 09:00N 50°43' W 127°29'0 0.5
2017-Aug-11 08:30N 50°43' W 127°29'4 7.5
2017-Aug-11 08:00N 50°47' W 127°29'4 8.4
2017-Aug-11 07:30N 50°49' W 127°35'4 8.0
2017-Aug-11 07:00N 50°53' W 127°37'3 6.9
2017-Aug-11 06:30N 50°55' W 127°41'4 7.2
2017-Aug-11 06:00N 50°57' W 127°46'3 6.9
2017-Aug-11 05:30N 50°59' W 127°50'4 7.5
2017-Aug-11 05:00N 51°00' W 127°56'4 7.5
2017-Aug-11 04:30N 51°02' W 128°02'4 7.7
2017-Aug-11 04:00N 51°03' W 128°07'4 7.5
2017-Aug-11 03:30N 51°05' W 128°13'4 7.3
2017-Aug-11 03:00N 51°07' W 128°18'4 7.6
2017-Aug-11 02:30N 51°09' W 128°23'4 8.3
2017-Aug-11 02:00N 51°11' W 128°28'4 8.5
2017-Aug-11 01:30N 51°13' W 128°34'4 8.6
2017-Aug-11 01:00N 51°16' W 128°40'4 8.5
2017-Aug-11 00:30N 51°18' W 128°46'4 8.2
2017-Aug-11 00:00N 51°20' W 128°51'4 8.5
2017-Aug-10 23:30N 51°22' W 128°57'4 8.8
2017-Aug-10 23:00N 51°24' W 129°03'6 8.8
2017-Aug-10 22:22N 51°27' W 129°11'72 4.2
2017-Aug-10 05:03N 52°12' W 130°42'  

Dump ship's entire track history